西安 の空港の天気 - METARとTAF

西安咸陽国際空港 ( ZLXY / XIY ) - 中華人民共和国 陝西省西安市
飛行場実況気象(Metar)
観測時間02/28 08:00 CST (02/28 00:00 UTC)
風向・風速西南西 2m/s
視程2300m
天気現象もや
なし
気温4℃
湿度75%
気圧1020hPa
METARZLXY 280000Z 25002MPS 2300 BR NSC 04/00 Q1020 BECMG TL0150 3000
過去の天気等 Google飛行場航空写真 Wunderground天気予報

過去48時間のMETAR

飛行場予報(TAF)
発表時間: 2/28 03:14 CST (2/27 19:14 UTC)
予報対象時間: 28日8時 CST ~ 1日8時 CST
風向・風速西 3m/s
視程3,000m
天気現象煙霧
なし
28日9時 CST ~ 28日15時 CST に一時的に
天気現象
TAF ZLXY 271914Z 2800/2824 27003MPS 3000 HZ NSC TX09/2806Z TNM03/22Z
TEMPO 2801/2807 RA